Terminal Aerodrome Forecast
Issued by NWS Jackson, MS

Home | Current Version | Previous Version | Text Only | Print | Product List | Glossary On
Versions: 1 2 3 4 5 6 7 8 9 10 11 12 13 14 15 16 17
000
FTUS44 KJAN 291120
TAFGLH
TAF
KGLH 291120Z 2912/3012 10010KT P6SM OVC025
     FM291500 17015G21KT P6SM SCT035 BKN250
     FM300000 19008KT P6SM SCT040 OVC100
     FM300500 22010KT P6SM VCTS SCT025CB OVC050
     FM300800 27007KT 3SM TSRA OVC025CB
     FM301000 35006KT 3SM SHRA BR VCTS OVC015CB=

USA.gov is the U.S. government's official web portal to all federal, state and local government web resources and services.